createdAt,value
2018-04-10T00:00:08.509Z,0
2018-04-10T00:01:08.239Z,0
2018-04-10T00:02:08.486Z,0
2018-04-10T00:03:08.449Z,0
2018-04-10T00:04:08.185Z,0
2018-04-10T00:05:08.176Z,0
2018-04-10T00:06:07.901Z,0
2018-04-10T00:07:08.274Z,0
2018-04-10T00:08:08.362Z,0
2018-04-10T00:09:07.846Z,0
2018-04-10T00:10:08.074Z,0
2018-04-10T00:11:08.054Z,0
2018-04-10T00:12:08.271Z,0
2018-04-10T00:13:08.013Z,0
2018-04-10T00:14:08.239Z,0
2018-04-10T00:15:07.968Z,0
2018-04-10T00:16:08.201Z,0
2018-04-10T00:17:08.180Z,0
2018-04-10T00:18:07.677Z,0
2018-04-10T00:19:08.001Z,0
2018-04-10T00:20:07.637Z,0
2018-04-10T00:21:07.855Z,0
2018-04-10T00:22:08.086Z,0
2018-04-10T00:23:07.825Z,0
2018-04-10T00:24:08.100Z,0
2018-04-10T00:25:08.029Z,0
2018-04-10T00:26:07.764Z,0
2018-04-10T00:27:07.755Z,0
2018-04-10T00:28:07.977Z,0
2018-04-10T00:29:07.957Z,0
2018-04-10T00:30:07.937Z,0
2018-04-10T00:31:07.914Z,0
2018-04-10T00:32:07.659Z,0
2018-04-10T00:33:07.641Z,0
2018-04-10T00:34:07.361Z,0
2018-04-10T00:35:07.591Z,0
2018-04-10T00:36:07.319Z,0
2018-04-10T00:37:07.310Z,0
2018-04-10T00:38:07.777Z,0
2018-04-10T00:39:07.516Z,0
2018-04-10T00:40:07.501Z,0
2018-04-10T00:41:07.725Z,0
2018-04-10T00:42:07.744Z,0
2018-04-10T00:43:07.689Z,0
2018-04-10T00:44:07.177Z,0
2018-04-10T00:45:07.653Z,0
2018-04-10T00:46:07.625Z,0
2018-04-10T00:47:07.108Z,0
2018-04-10T00:48:07.350Z,0
2018-04-10T00:49:07.326Z,0
2018-04-10T00:50:07.550Z,0
2018-04-10T00:51:07.525Z,0
2018-04-10T00:52:07.265Z,0
2018-04-10T00:53:07.003Z,0
2018-04-10T00:54:07.230Z,0
2018-04-10T00:55:07.213Z,0
2018-04-10T00:56:07.185Z,0
2018-04-10T00:57:07.427Z,0
2018-04-10T00:58:07.144Z,0
2018-04-10T00:59:07.373Z,0
2018-04-10T01:00:07.120Z,0
2018-04-10T01:01:07.093Z,0
2018-04-10T01:02:07.083Z,0
2018-04-10T01:03:07.300Z,0
2018-04-10T01:04:07.283Z,0
2018-04-10T01:05:07.262Z,0
2018-04-10T01:06:06.997Z,0
2018-04-10T01:07:07.219Z,0
2018-04-10T01:08:06.960Z,0
2018-04-10T01:09:06.947Z,0
2018-04-10T01:10:06.681Z,0
2018-04-10T01:11:07.145Z,0
2018-04-10T01:12:06.875Z,0
2018-04-10T01:13:06.861Z,0
2018-04-10T01:14:06.844Z,0
2018-04-10T01:15:06.820Z,0
2018-04-10T01:16:06.804Z,0
2018-04-10T01:17:07.034Z,0
2018-04-10T01:18:06.770Z,0
2018-04-10T01:19:06.998Z,0
2018-04-10T01:20:06.726Z,0
2018-04-10T01:21:06.210Z,0
2018-04-10T01:22:06.936Z,0
2018-04-10T01:23:06.418Z,0
2018-04-10T01:24:06.894Z,0
2018-04-10T01:25:06.383Z,0
2018-04-10T01:26:06.607Z,0
2018-04-10T01:27:06.591Z,0
2018-04-10T01:28:06.819Z,0
2018-04-10T01:29:06.309Z,0
2018-04-10T01:30:06.784Z,0
2018-04-10T01:31:06.768Z,0
2018-04-10T01:32:06.495Z,0
2018-04-10T01:33:06.474Z,0
2018-04-10T01:34:06.457Z,0
2018-04-10T01:35:06.443Z,0
2018-04-10T01:36:06.420Z,0
2018-04-10T01:37:06.401Z,0
2018-04-10T01:38:06.628Z,0
2018-04-10T01:39:06.116Z,0
2018-04-10T01:40:06.090Z,0
2018-04-10T01:41:06.317Z,0
2018-04-10T01:42:06.302Z,0
2018-04-10T01:43:06.291Z,0
2018-04-10T01:44:06.009Z,0
2018-04-10T01:45:06.241Z,0
2018-04-10T01:46:06.223Z,0
2018-04-10T01:47:05.955Z,0
2018-04-10T01:48:05.933Z,0
2018-04-10T01:49:06.413Z,0
2018-04-10T01:50:06.143Z,0
2018-04-10T01:51:06.368Z,0
2018-04-10T01:52:06.355Z,0
2018-04-10T01:53:06.090Z,0
2018-04-10T01:54:06.320Z,0
2018-04-10T01:55:06.305Z,0
2018-04-10T01:56:06.029Z,0
2018-04-10T01:57:06.271Z,0
2018-04-10T01:58:05.998Z,0
2018-04-10T01:59:05.972Z,0
2018-04-10T02:00:05.706Z,0
2018-04-10T02:01:06.191Z,0
2018-04-10T02:02:05.665Z,0
2018-04-10T02:03:06.139Z,0
2018-04-10T02:04:05.874Z,0
2018-04-10T02:05:05.608Z,0
2018-04-10T02:06:05.585Z,0
2018-04-10T02:07:05.819Z,0
2018-04-10T02:08:05.797Z,0
2018-04-10T02:09:05.779Z,0
2018-04-10T02:10:05.765Z,0
2018-04-10T02:11:05.995Z,0
2018-04-10T02:12:05.970Z,0
2018-04-10T02:13:05.957Z,0
2018-04-10T02:14:05.922Z,0
2018-04-10T02:15:05.660Z,0
2018-04-10T02:16:05.887Z,0
2018-04-10T02:17:05.873Z,0
2018-04-10T02:18:05.853Z,0
2018-04-10T02:19:05.829Z,0
2018-04-10T02:20:05.561Z,0
2018-04-10T02:21:05.801Z,0
2018-04-10T02:22:05.778Z,0
2018-04-10T02:23:05.256Z,0
2018-04-10T02:24:05.735Z,0
2018-04-10T02:25:05.483Z,0
2018-04-10T02:26:05.198Z,0
2018-04-10T02:27:05.774Z,0
2018-04-10T02:28:05.408Z,0
2018-04-10T02:29:05.390Z,0
2018-04-10T02:30:05.372Z,0
2018-04-10T02:31:05.342Z,0
2018-04-10T02:32:05.583Z,0
2018-04-10T02:33:05.066Z,0
2018-04-10T02:34:05.528Z,0
2018-04-10T02:35:05.583Z,0
2018-04-10T02:36:05.514Z,0
2018-04-10T02:37:05.489Z,0
2018-04-10T02:38:05.468Z,0
2018-04-10T02:39:05.195Z,0
2018-04-10T02:40:05.181Z,0
2018-04-10T02:41:05.175Z,0
2018-04-10T02:42:05.381Z,0
2018-04-10T02:43:05.357Z,0
2018-04-10T02:44:05.101Z,0
2018-04-10T02:45:05.072Z,0
2018-04-10T02:46:05.297Z,0
2018-04-10T02:47:05.028Z,0
2018-04-10T02:48:05.267Z,0
2018-04-10T02:49:05.241Z,0
2018-04-10T02:50:04.732Z,0
2018-04-10T02:51:04.705Z,0
2018-04-10T02:52:05.183Z,0
2018-04-10T02:53:04.951Z,0
2018-04-10T02:54:05.139Z,0
2018-04-10T02:55:05.125Z,0
2018-04-10T02:56:04.898Z,0
2018-04-10T02:57:05.080Z,0
2018-04-10T02:58:05.055Z,0
2018-04-10T02:59:05.036Z,0
2018-04-10T03:00:05.025Z,0
2018-04-10T03:01:04.752Z,0
2018-04-10T03:02:05.088Z,0
2018-04-10T03:03:04.957Z,0
2018-04-10T03:04:04.692Z,0
2018-04-10T03:05:04.921Z,0
2018-04-10T03:06:04.896Z,0
2018-04-10T03:07:04.884Z,0
2018-04-10T03:08:04.880Z,0
2018-04-10T03:09:04.840Z,0
2018-04-10T03:10:04.574Z,0
2018-04-10T03:11:04.794Z,0
2018-04-10T03:12:04.534Z,0
2018-04-10T03:13:04.918Z,0
2018-04-10T03:14:04.743Z,0
2018-04-10T03:15:04.816Z,0
2018-04-10T03:16:03.956Z,0
2018-04-10T03:17:04.428Z,0
2018-04-10T03:18:04.657Z,0
2018-04-10T03:19:04.149Z,0
2018-04-10T03:20:04.619Z,0
2018-04-10T03:21:04.354Z,0
2018-04-10T03:22:04.325Z,0
2018-04-10T03:23:04.060Z,0
2018-04-10T03:24:04.043Z,0
2018-04-10T03:25:04.522Z,0
2018-04-10T03:26:04.501Z,0
2018-04-10T03:27:03.987Z,0
2018-04-10T03:28:03.962Z,0
2018-04-10T03:29:04.221Z,0
2018-04-10T03:30:04.166Z,0
2018-04-10T03:31:04.399Z,0
2018-04-10T03:32:04.131Z,0
2018-04-10T03:33:04.375Z,0
2018-04-10T03:34:04.086Z,0
2018-04-10T03:35:04.067Z,0
2018-04-10T03:36:03.809Z,0
2018-04-10T03:37:04.023Z,0
2018-04-10T03:38:04.003Z,0
2018-04-10T03:39:03.498Z,0
2018-04-10T03:40:03.964Z,0
2018-04-10T03:41:04.188Z,0
2018-04-10T03:42:03.927Z,0
2018-04-10T03:43:03.650Z,0
2018-04-10T03:44:03.882Z,0
2018-04-10T03:45:03.854Z,0
2018-04-10T03:46:03.837Z,0
2018-04-10T03:47:03.814Z,0
2018-04-10T03:48:03.842Z,0
2018-04-10T03:49:04.034Z,0
2018-04-10T03:50:03.997Z,0
2018-04-10T03:51:03.735Z,0
2018-04-10T03:52:03.964Z,0
2018-04-10T03:53:03.938Z,0
2018-04-10T03:54:03.923Z,0
2018-04-10T03:55:03.667Z,0
2018-04-10T03:56:03.630Z,0
2018-04-10T03:57:03.608Z,0
2018-04-10T03:58:03.843Z,0
2018-04-10T03:59:03.818Z,0
2018-04-10T04:00:03.557Z,0
2018-04-10T04:01:03.550Z,0
2018-04-10T04:02:03.507Z,0
2018-04-10T04:03:03.491Z,0
2018-04-10T04:04:03.730Z,0
2018-04-10T04:05:03.699Z,0
2018-04-10T04:06:03.678Z,0
2018-04-10T04:07:03.399Z,0
2018-04-10T04:08:03.628Z,0
2018-04-10T04:09:03.501Z,0
2018-04-10T04:10:03.084Z,0
2018-04-10T04:11:03.070Z,0
2018-04-10T04:12:03.546Z,0
2018-04-10T04:13:03.523Z,0
2018-04-10T04:14:03.511Z,0
2018-04-10T04:15:02.820Z,0
2018-04-10T04:16:03.645Z,0
2018-04-10T04:17:03.473Z,0
2018-04-10T04:18:02.920Z,0
2018-04-10T04:19:03.399Z,0
2018-04-10T04:20:03.134Z,0
2018-04-10T04:21:03.117Z,0
2018-04-10T04:22:02.835Z,0
2018-04-10T04:23:03.309Z,0
2018-04-10T04:24:03.288Z,0
2018-04-10T04:25:03.269Z,0
2018-04-10T04:26:02.513Z,0
2018-04-10T04:27:03.225Z,0
2018-04-10T04:28:02.957Z,0
2018-04-10T04:29:02.691Z,0
2018-04-10T04:30:02.919Z,0
2018-04-10T04:31:02.897Z,0
2018-04-10T04:32:02.876Z,0
2018-04-10T04:33:02.864Z,0
2018-04-10T04:34:02.830Z,0
2018-04-10T04:35:03.054Z,0
2018-04-10T04:36:02.796Z,0
2018-04-10T04:37:02.768Z,5
2018-04-10T04:38:02.749Z,5
2018-04-10T04:39:02.975Z,5
2018-04-10T04:40:02.472Z,5
2018-04-10T04:41:02.932Z,5
2018-04-10T04:42:02.909Z,5
2018-04-10T04:43:02.638Z,10
2018-04-10T04:44:02.621Z,10
2018-04-10T04:45:02.841Z,10
2018-04-10T04:46:02.834Z,10
2018-04-10T04:47:02.553Z,15
2018-04-10T04:48:02.287Z,15
2018-04-10T04:49:02.314Z,15
2018-04-10T04:50:02.489Z,20
2018-04-10T04:51:02.471Z,20
2018-04-10T04:52:02.698Z,25
2018-04-10T04:53:02.687Z,25
2018-04-10T04:54:02.653Z,30
2018-04-10T04:55:02.634Z,30
2018-04-10T04:56:02.367Z,35
2018-04-10T04:57:02.587Z,35
2018-04-10T04:58:02.322Z,40
2018-04-10T04:59:02.545Z,45
2018-04-10T05:00:02.284Z,45
2018-04-10T05:01:02.504Z,50
2018-04-10T05:02:01.990Z,55
2018-04-10T05:03:02.458Z,55
2018-04-10T05:04:02.192Z,60
2018-04-10T05:05:02.455Z,60
2018-04-10T05:06:02.146Z,65
2018-04-10T05:07:02.379Z,65
2018-04-10T05:08:02.113Z,70
2018-04-10T05:09:02.325Z,75
2018-04-10T05:10:02.307Z,80
2018-04-10T05:11:02.044Z,85
2018-04-10T05:12:02.519Z,90
2018-04-10T05:13:01.759Z,90
2018-04-10T05:14:02.222Z,95
2018-04-10T05:15:02.212Z,100
2018-04-10T05:16:02.180Z,105
2018-04-10T05:17:01.917Z,110
2018-04-10T05:18:02.153Z,115
2018-04-10T05:19:02.122Z,120
2018-04-10T05:20:02.099Z,125
2018-04-10T05:21:02.075Z,130
2018-04-10T05:22:02.055Z,135
2018-04-10T05:23:02.159Z,135
2018-04-10T05:24:01.766Z,140
2018-04-10T05:25:01.994Z,145
2018-04-10T05:26:01.969Z,150
2018-04-10T05:27:01.967Z,160
2018-04-10T05:28:01.929Z,165
2018-04-10T05:29:01.915Z,170
2018-04-10T05:30:01.993Z,175
2018-04-10T05:31:01.374Z,180
2018-04-10T05:32:01.841Z,185
2018-04-10T05:33:01.326Z,190
2018-04-10T05:34:01.058Z,195
2018-04-10T05:35:01.786Z,200
2018-04-10T05:36:01.513Z,200
2018-04-10T05:37:01.740Z,205
2018-04-10T05:38:01.232Z,210
2018-04-10T05:39:01.698Z,215
2018-04-10T05:40:01.429Z,220
2018-04-10T05:41:01.410Z,220
2018-04-10T05:42:01.155Z,225
2018-04-10T05:43:01.372Z,230
2018-04-10T05:44:01.594Z,230
2018-04-10T05:45:01.333Z,230
2018-04-10T05:46:01.060Z,235
2018-04-10T05:47:01.544Z,235
2018-04-10T05:48:01.512Z,240
2018-04-10T05:49:01.491Z,240
2018-04-10T05:50:01.472Z,245
2018-04-10T05:51:01.460Z,250
2018-04-10T05:52:01.431Z,255
2018-04-10T05:53:01.414Z,260
2018-04-10T05:54:01.154Z,265
2018-04-10T05:55:01.162Z,270
2018-04-10T05:56:01.369Z,275
2018-04-10T05:57:01.330Z,280
2018-04-10T05:58:01.308Z,285
2018-04-10T05:59:01.301Z,290
2018-04-10T06:00:01.027Z,295
2018-04-10T06:01:01.249Z,300
2018-04-10T06:02:00.984Z,310
2018-04-10T06:03:00.720Z,315
2018-04-10T06:04:01.069Z,320
2018-04-10T06:05:00.676Z,325
2018-04-10T06:06:00.902Z,325
2018-04-10T06:07:01.126Z,330
2018-04-10T06:08:01.112Z,335
2018-04-10T06:09:00.344Z,340
2018-04-10T06:10:01.245Z,345
2018-04-10T06:11:00.802Z,345
2018-04-10T06:12:01.034Z,350
2018-04-10T06:13:00.768Z,350
2018-04-10T06:14:00.373Z,355
2018-04-10T06:15:00.732Z,355
2018-04-10T06:16:01.018Z,360
2018-04-10T06:17:00.933Z,365
2018-04-10T06:18:00.911Z,370
2018-04-10T06:19:00.654Z,380
2018-04-10T06:20:00.638Z,385
2018-04-10T06:21:00.857Z,385
2018-04-10T06:22:00.593Z,390
2018-04-10T06:23:00.822Z,395
2018-04-10T06:24:00.312Z,400
2018-04-10T06:25:00.781Z,410
2018-04-10T06:26:00.759Z,420
2018-04-10T06:27:00.499Z,425
2018-04-10T06:28:00.741Z,445
2018-04-10T06:29:00.646Z,460
2018-04-10T06:30:00.685Z,470
2018-04-10T06:31:00.706Z,485
2018-04-10T06:32:00.647Z,505
2018-04-10T06:33:00.634Z,520
2018-04-10T06:34:00.376Z,520
2018-04-10T06:35:00.350Z,530
2018-04-10T06:36:00.582Z,535
2018-04-10T06:37:00.558Z,540
2018-04-10T06:38:00.547Z,545
2018-04-10T06:39:00.272Z,550
2018-04-10T06:40:00.255Z,555
2018-04-10T06:41:00.493Z,555
2018-04-10T06:42:00.963Z,555
2018-04-10T06:43:00.447Z,560
2018-04-10T06:44:00.434Z,565
2018-04-10T06:45:00.417Z,565
2018-04-10T06:46:00.154Z,570
2018-04-10T06:47:00.381Z,570
2018-04-10T06:48:00.116Z,575
2018-04-10T06:49:00.343Z,580
2018-04-10T06:50:00.325Z,585
2018-04-10T06:50:59.573Z,580
2018-04-10T06:52:00.293Z,575
2018-04-10T06:52:59.822Z,565
2018-04-10T06:53:59.762Z,555
2018-04-10T06:55:00.241Z,545
2018-04-10T06:56:00.093Z,540
2018-04-10T06:57:00.216Z,540
2018-04-10T06:57:59.700Z,535
2018-04-10T06:59:00.288Z,535
2018-04-10T07:00:00.521Z,535
2018-04-10T07:01:00.143Z,535
2018-04-10T07:02:00.161Z,540
2018-04-10T07:03:02.486Z,545
2018-04-10T07:04:01.273Z,555
2018-04-10T07:05:01.638Z,560
2018-04-10T07:06:02.203Z,565
2018-04-10T07:07:01.901Z,565
2018-04-10T07:08:01.882Z,565
2018-04-10T07:09:00.018Z,560
2018-04-10T07:10:00.013Z,560
2018-04-10T07:11:00.224Z,550
2018-04-10T07:12:01.562Z,545
2018-04-10T07:13:00.871Z,545
2018-04-10T07:14:00.325Z,535
2018-04-10T07:14:59.921Z,530
2018-04-10T07:15:59.651Z,530
2018-04-10T07:16:59.895Z,525
2018-04-10T07:17:59.869Z,510
2018-04-10T07:18:59.521Z,505
2018-04-10T07:19:59.831Z,505
2018-04-10T07:20:59.984Z,505
2018-04-10T07:21:59.559Z,505
2018-04-10T07:23:00.369Z,505
2018-04-10T07:24:00.633Z,495
2018-04-10T07:25:00.070Z,500
2018-04-10T07:25:59.865Z,505
2018-04-10T07:27:01.238Z,515
2018-04-10T07:28:02.363Z,525
2018-04-10T07:29:02.083Z,545
2018-04-10T07:30:02.380Z,555
2018-04-10T07:31:01.236Z,560
2018-04-10T07:32:01.645Z,570
2018-04-10T07:32:59.748Z,575
2018-04-10T07:34:01.839Z,585
2018-04-10T07:35:01.271Z,595
2018-04-10T07:36:01.084Z,600
2018-04-10T07:37:02.374Z,610
2018-04-10T07:38:02.650Z,620
2018-04-10T07:39:00.831Z,625
2018-04-10T07:40:00.007Z,635
2018-04-10T07:41:01.285Z,645
2018-04-10T07:42:00.152Z,655
2018-04-10T07:43:00.674Z,665
2018-04-10T07:44:00.068Z,675
2018-04-10T07:45:00.379Z,685
2018-04-10T07:45:59.426Z,690
2018-04-10T07:47:02.662Z,705
2018-04-10T07:47:59.308Z,705
2018-04-10T07:48:59.959Z,710
2018-04-10T07:49:58.829Z,715
2018-04-10T07:50:59.173Z,720
2018-04-10T07:52:00.268Z,725
2018-04-10T07:53:01.656Z,730
2018-04-10T07:54:00.152Z,740
2018-04-10T07:55:00.545Z,750
2018-04-10T07:55:59.223Z,760
2018-04-10T07:57:01.591Z,765
2018-04-10T07:57:59.938Z,770
2018-04-10T07:59:00.931Z,770
2018-04-10T07:59:59.323Z,770
2018-04-10T08:00:59.042Z,770
2018-04-10T08:01:59.959Z,760
2018-04-10T08:03:00.920Z,755
2018-04-10T08:03:59.641Z,745
2018-04-10T08:05:00.471Z,740
2018-04-10T08:05:59.379Z,725
2018-04-10T08:06:59.429Z,710
2018-04-10T08:08:00.220Z,705
2018-04-10T08:08:59.709Z,690
2018-04-10T08:09:58.838Z,685
2018-04-10T08:10:59.076Z,685
2018-04-10T08:11:59.072Z,685
2018-04-10T08:12:59.045Z,685
2018-04-10T08:13:59.033Z,695
2018-04-10T08:14:58.919Z,700
2018-04-10T08:15:58.870Z,715
2018-04-10T08:16:59.146Z,720
2018-04-10T08:17:58.821Z,720
2018-04-10T08:18:58.961Z,725
2018-04-10T08:19:58.942Z,720
2018-04-10T08:20:58.682Z,720
2018-04-10T08:21:58.924Z,710
2018-04-10T08:22:59.638Z,715
2018-04-10T08:23:58.776Z,685
2018-04-10T08:24:59.000Z,685
2018-04-10T08:25:58.927Z,685
2018-04-10T08:26:58.819Z,680
2018-04-10T08:27:58.634Z,685
2018-04-10T08:28:58.328Z,690
2018-04-10T08:29:58.318Z,695
2018-04-10T08:30:58.552Z,705
2018-04-10T08:31:58.789Z,715
2018-04-10T08:32:58.518Z,715
2018-04-10T08:33:58.763Z,710
2018-04-10T08:34:58.751Z,700
2018-04-10T08:35:58.480Z,695
2018-04-10T08:36:58.229Z,680
2018-04-10T08:37:58.307Z,665
2018-04-10T08:38:58.445Z,650
2018-04-10T08:39:58.682Z,640
2018-04-10T08:40:58.661Z,635
2018-04-10T08:41:58.664Z,635
2018-04-10T08:42:58.385Z,635
2018-04-10T08:43:58.130Z,640
2018-04-10T08:44:58.646Z,650
2018-04-10T08:45:58.347Z,660
2018-04-10T08:46:58.569Z,680
2018-04-10T08:47:58.569Z,695
2018-04-10T08:48:58.305Z,715
2018-04-10T08:49:58.536Z,745
2018-04-10T08:50:58.278Z,770
2018-04-10T08:51:58.514Z,790
2018-04-10T08:52:58.063Z,825
2018-04-10T08:53:58.477Z,865
2018-04-10T08:54:58.466Z,915
2018-04-10T08:55:58.456Z,940
2018-04-10T08:56:58.437Z,955
2018-04-10T08:57:58.431Z,940
2018-04-10T08:58:58.413Z,925
2018-04-10T08:59:58.144Z,925
2018-04-10T09:00:58.406Z,915
2018-04-10T09:01:58.371Z,910
2018-04-10T09:02:57.863Z,890
2018-04-10T09:03:58.340Z,870
2018-04-10T09:04:58.431Z,865
2018-04-10T09:05:58.335Z,875
2018-04-10T09:06:58.311Z,885
2018-04-10T09:07:58.349Z,905
2018-04-10T09:08:58.027Z,930
2018-04-10T09:09:58.258Z,935
2018-04-10T09:10:58.275Z,940
2018-04-10T09:11:57.993Z,945
2018-04-10T09:12:58.233Z,945
2018-04-10T09:13:58.693Z,940
2018-04-10T09:14:58.322Z,925
2018-04-10T09:15:58.185Z,915
2018-04-10T09:16:58.180Z,905
2018-04-10T09:17:57.917Z,890
2018-04-10T09:18:57.903Z,875
2018-04-10T09:19:57.882Z,875
2018-04-10T09:20:58.122Z,860
2018-04-10T09:21:58.226Z,845
2018-04-10T09:22:58.141Z,840
2018-04-10T09:23:58.117Z,840
2018-04-10T09:24:58.078Z,840
2018-04-10T09:25:58.136Z,830
2018-04-10T09:26:58.044Z,820
2018-04-10T09:27:58.028Z,805
2018-04-10T09:28:57.770Z,785
2018-04-10T09:29:58.000Z,750
2018-04-10T09:30:57.498Z,730
2018-04-10T09:31:57.984Z,700
2018-04-10T09:32:57.237Z,665
2018-04-10T09:33:57.210Z,640
2018-04-10T09:34:57.942Z,615
2018-04-10T09:35:57.768Z,605
2018-04-10T09:36:57.923Z,595
2018-04-10T09:37:57.897Z,595
2018-04-10T09:38:57.889Z,600
2018-04-10T09:39:57.874Z,615
2018-04-10T09:40:57.615Z,640
2018-04-10T09:41:57.354Z,665
2018-04-10T09:42:57.831Z,685
2018-04-10T09:43:57.875Z,715
2018-04-10T09:44:57.807Z,745
2018-04-10T09:45:57.801Z,760
2018-04-10T09:46:57.786Z,780
2018-04-10T09:47:57.025Z,810
2018-04-10T09:48:57.506Z,825
2018-04-10T09:49:57.738Z,835
2018-04-10T09:50:57.724Z,845
2018-04-10T09:51:57.721Z,860
2018-04-10T09:52:57.457Z,860
2018-04-10T09:53:57.443Z,855
2018-04-10T09:54:57.678Z,860
2018-04-10T09:55:57.662Z,860
2018-04-10T09:56:57.661Z,870
2018-04-10T09:57:57.641Z,870
2018-04-10T09:58:57.385Z,865
2018-04-10T09:59:57.106Z,855
2018-04-10T10:00:57.106Z,860
2018-04-10T10:01:57.332Z,850
2018-04-10T10:02:57.069Z,840
2018-04-10T10:03:57.069Z,835
2018-04-10T10:04:57.296Z,835
2018-04-10T10:05:57.037Z,830
2018-04-10T10:06:57.518Z,830
2018-04-10T10:07:57.510Z,830
2018-04-10T10:08:57.245Z,840
2018-04-10T10:09:57.479Z,860
2018-04-10T10:10:56.975Z,875
2018-04-10T10:11:57.464Z,885
2018-04-10T10:12:57.246Z,895
2018-04-10T10:13:57.443Z,885
2018-04-10T10:14:57.559Z,875
2018-04-10T10:15:57.406Z,880
2018-04-10T10:16:57.147Z,880
2018-04-10T10:17:57.134Z,890
2018-04-10T10:18:57.369Z,895
2018-04-10T10:19:57.460Z,900
2018-04-10T10:20:57.344Z,905
2018-04-10T10:21:57.333Z,905
2018-04-10T10:22:57.313Z,910
2018-04-10T10:23:57.058Z,910
2018-04-10T10:24:57.297Z,905
2018-04-10T10:25:57.360Z,910
2018-04-10T10:26:57.263Z,890
2018-04-10T10:27:57.014Z,890
2018-04-10T10:28:57.285Z,880
2018-04-10T10:29:57.228Z,850
2018-04-10T10:30:56.970Z,815
2018-04-10T10:31:57.201Z,775
2018-04-10T10:32:56.941Z,740
2018-04-10T10:33:57.179Z,710
2018-04-10T10:34:57.165Z,685
2018-04-10T10:35:57.206Z,660
2018-04-10T10:36:56.923Z,645
2018-04-10T10:37:56.965Z,620
2018-04-10T10:38:56.991Z,605
2018-04-10T10:39:56.876Z,590
2018-04-10T10:40:56.863Z,585
2018-04-10T10:41:56.579Z,575
2018-04-10T10:42:56.826Z,575
2018-04-10T10:43:56.807Z,570
2018-04-10T10:44:57.436Z,570
2018-04-10T10:45:56.780Z,570
2018-04-10T10:46:56.539Z,565
2018-04-10T10:47:57.021Z,570
2018-04-10T10:48:56.988Z,565
2018-04-10T10:49:56.975Z,570
2018-04-10T10:50:56.711Z,570
2018-04-10T10:51:56.696Z,575
2018-04-10T10:52:56.928Z,575
2018-04-10T10:53:56.925Z,580
2018-04-10T10:54:56.667Z,580
2018-04-10T10:55:56.890Z,580
2018-04-10T10:56:56.133Z,585
2018-04-10T10:57:56.859Z,590
2018-04-10T10:58:56.848Z,595
2018-04-10T10:59:56.591Z,600
2018-04-10T11:00:56.577Z,605
2018-04-10T11:01:56.564Z,610
2018-04-10T11:02:56.548Z,620
2018-04-10T11:03:56.787Z,625
2018-04-10T11:04:57.899Z,630
2018-04-10T11:05:56.752Z,630
2018-04-10T11:06:56.746Z,640
2018-04-10T11:07:56.894Z,655
2018-04-10T11:08:56.714Z,670
2018-04-10T11:09:56.208Z,685
2018-04-10T11:10:56.680Z,700
2018-04-10T11:11:56.834Z,715
2018-04-10T11:12:57.555Z,730
2018-04-10T11:13:56.154Z,735
2018-04-10T11:14:56.733Z,745
2018-04-10T11:15:56.664Z,755
2018-04-10T11:16:56.361Z,760
2018-04-10T11:17:56.353Z,755
2018-04-10T11:18:56.086Z,755
2018-04-10T11:19:55.861Z,765
2018-04-10T11:20:56.160Z,760
2018-04-10T11:21:56.046Z,760
2018-04-10T11:22:56.557Z,760
2018-04-10T11:23:56.265Z,765
2018-04-10T11:24:56.252Z,775
2018-04-10T11:25:56.488Z,775
2018-04-10T11:26:56.469Z,775
2018-04-10T11:27:56.452Z,780
2018-04-10T11:28:55.952Z,790
2018-04-10T11:29:56.462Z,795
2018-04-10T11:30:56.183Z,800
2018-04-10T11:31:55.910Z,810
2018-04-10T11:32:56.403Z,800
2018-04-10T11:33:56.394Z,800
2018-04-10T11:34:56.376Z,795
2018-04-10T11:35:56.368Z,795
2018-04-10T11:36:56.350Z,785
2018-04-10T11:37:56.087Z,775
2018-04-10T11:38:56.080Z,770
2018-04-10T11:39:56.064Z,770
2018-04-10T11:40:56.305Z,765
2018-04-10T11:41:56.043Z,765
2018-04-10T11:42:56.144Z,765
2018-04-10T11:43:56.013Z,765
2018-04-10T11:44:56.000Z,765
2018-04-10T11:45:55.990Z,765
2018-04-10T11:46:56.232Z,765
2018-04-10T11:47:56.235Z,775
2018-04-10T11:48:56.201Z,785
2018-04-10T11:49:55.942Z,785
2018-04-10T11:50:56.025Z,790
2018-04-10T11:51:56.330Z,785
2018-04-10T11:52:56.279Z,785
2018-04-10T11:53:56.722Z,780
2018-04-10T11:54:56.158Z,780
2018-04-10T11:55:55.783Z,775
2018-04-10T11:56:55.679Z,765
2018-04-10T11:57:56.091Z,750
2018-04-10T11:58:55.829Z,745
2018-04-10T11:59:56.066Z,745
2018-04-10T12:00:56.049Z,735
2018-04-10T12:01:56.046Z,720
2018-04-10T12:02:56.026Z,710
2018-04-10T12:03:56.016Z,710
2018-04-10T12:04:56.140Z,710
2018-04-10T12:05:55.744Z,700
2018-04-10T12:06:55.734Z,695
2018-04-10T12:07:55.718Z,690
2018-04-10T12:08:55.957Z,685
2018-04-10T12:09:55.456Z,680
2018-04-10T12:10:55.698Z,680
2018-04-10T12:11:56.028Z,665
2018-04-10T12:12:55.416Z,660
2018-04-10T12:13:55.909Z,650
2018-04-10T12:14:56.006Z,645
2018-04-10T12:15:55.428Z,640
2018-04-10T12:16:55.861Z,635
2018-04-10T12:17:55.601Z,640
2018-04-10T12:18:55.836Z,635
2018-04-10T12:19:55.822Z,640
2018-04-10T12:20:55.570Z,645
2018-04-10T12:21:55.798Z,645
2018-04-10T12:22:55.785Z,640
2018-04-10T12:23:55.521Z,630
2018-04-10T12:24:55.267Z,615
2018-04-10T12:25:55.752Z,610
2018-04-10T12:26:55.490Z,600
2018-04-10T12:27:55.229Z,595
2018-04-10T12:28:55.709Z,580
2018-04-10T12:29:55.463Z,575
2018-04-10T12:30:55.690Z,575
2018-04-10T12:31:55.527Z,570
2018-04-10T12:32:55.415Z,565
2018-04-10T12:33:55.646Z,565
2018-04-10T12:34:55.391Z,565
2018-04-10T12:35:55.620Z,565
2018-04-10T12:36:55.613Z,560
2018-04-10T12:37:55.606Z,565
2018-04-10T12:38:54.845Z,555
2018-04-10T12:39:55.075Z,550
2018-04-10T12:40:55.311Z,550
2018-04-10T12:41:55.310Z,550
2018-04-10T12:42:55.542Z,545
2018-04-10T12:43:55.350Z,540
2018-04-10T12:44:55.506Z,540
2018-04-10T12:45:55.487Z,525
2018-04-10T12:46:55.233Z,525
2018-04-10T12:47:54.979Z,515
2018-04-10T12:48:55.456Z,510
2018-04-10T12:49:55.452Z,515
2018-04-10T12:50:55.222Z,510
2018-04-10T12:51:54.919Z,510
2018-04-10T12:52:55.154Z,510
2018-04-10T12:53:55.150Z,515
2018-04-10T12:54:55.384Z,510
2018-04-10T12:55:55.372Z,510
2018-04-10T12:56:54.857Z,510
2018-04-10T12:57:55.338Z,510
2018-04-10T12:58:55.342Z,510
2018-04-10T12:59:55.317Z,515
2018-04-10T13:00:55.300Z,510
2018-04-10T13:01:55.292Z,510
2018-04-10T13:02:55.032Z,510
2018-04-10T13:03:55.339Z,515
2018-04-10T13:04:54.999Z,510
2018-04-10T13:05:54.738Z,515
2018-04-10T13:06:54.719Z,510
2018-04-10T13:07:54.967Z,510
2018-04-10T13:08:54.703Z,510
2018-04-10T13:09:54.928Z,505
2018-04-10T13:10:54.679Z,500
2018-04-10T13:11:54.969Z,500
2018-04-10T13:12:56.023Z,500
2018-04-10T13:13:57.195Z,500
2018-04-10T13:14:55.127Z,505
2018-04-10T13:15:54.844Z,500
2018-04-10T13:16:58.230Z,505
2018-04-10T13:17:55.079Z,505
2018-04-10T13:18:54.616Z,510
2018-04-10T13:19:54.801Z,505
2018-04-10T13:20:54.638Z,505
2018-04-10T13:21:54.770Z,505
2018-04-10T13:22:54.953Z,505
2018-04-10T13:23:54.742Z,505
2018-04-10T13:24:54.981Z,505
2018-04-10T13:25:54.717Z,505
2018-04-10T13:26:54.737Z,505
2018-04-10T13:27:54.706Z,505
2018-04-10T13:28:55.035Z,505
2018-04-10T13:29:54.414Z,510
2018-04-10T13:30:54.996Z,515
2018-04-10T13:31:54.892Z,510
2018-04-10T13:32:54.868Z,510
2018-04-10T13:33:54.865Z,510
2018-04-10T13:34:54.597Z,510
2018-04-10T13:35:54.589Z,510
2018-04-10T13:36:54.579Z,510
2018-04-10T13:37:54.812Z,510
2018-04-10T13:38:54.549Z,510
2018-04-10T13:39:54.043Z,515
2018-04-10T13:40:54.770Z,515
2018-04-10T13:41:54.754Z,490
2018-04-10T13:42:54.599Z,515
2018-04-10T13:43:54.748Z,525
2018-04-10T13:44:54.471Z,525
2018-04-10T13:45:54.712Z,530
2018-04-10T13:46:54.733Z,535
2018-04-10T13:47:54.440Z,545
2018-04-10T13:48:54.669Z,550
2018-04-10T13:49:54.655Z,535
2018-04-10T13:50:54.393Z,545
2018-04-10T13:51:54.625Z,565
2018-04-10T13:52:54.612Z,565
2018-04-10T13:53:54.355Z,575
2018-04-10T13:54:54.342Z,590
2018-04-10T13:55:54.577Z,595
2018-04-10T13:56:54.564Z,600
2018-04-10T13:57:54.302Z,600
2018-04-10T13:58:54.552Z,600
2018-04-10T13:59:54.275Z,600
2018-04-10T14:00:54.014Z,610
2018-04-10T14:01:54.244Z,610
2018-04-10T14:02:54.610Z,620
2018-04-10T14:03:54.258Z,635
2018-04-10T14:04:54.308Z,655
2018-04-10T14:05:53.955Z,660